Time;durP1;ratioP1;P1;durP2;ratioP2;P2;SDS_P1;SDS_P2;PMS_P1;PMS_P2;Temp;Humidity;BMP_temperature;BMP_pressure;BME280_temperature;BME280_humidity;BME280_pressure;Samples;Min_cycle;Max_cycle;Signal;HPM_P1;HPM_P2
2023/03/24 00:01:53;;;;;;;2.97;1.40;;;;;;;15.00;91.42;99153.91;8325511;28;20465;-60
2023/03/24 00:05:57;;;;;;;2.75;1.50;;;;;;;15.05;91.10;99146.84;8325237;28;20037;-61
2023/03/24 00:09:57;;;;;;;3.20;1.30;;;;;;;15.02;91.38;99141.81;8315554;28;20042;-61
2023/03/24 00:13:58;;;;;;;3.10;1.48;;;;;;;15.03;91.91;99132.59;8293891;28;20053;-60
2023/03/24 00:17:58;;;;;;;1.83;1.33;;;;;;;15.07;91.46;99133.84;8313528;28;20046;-60
2023/03/24 00:21:59;;;;;;;4.90;1.73;;;;;;;15.11;91.11;99107.09;8323920;28;20498;-60
2023/03/24 00:26:04;;;;;;;2.60;1.70;;;;;;;15.13;91.25;99111.28;8320754;28;20415;-60
2023/03/24 00:30:07;;;;;;;2.53;1.67;;;;;;;15.29;90.06;99116.38;8326401;28;20400;-60
2023/03/24 00:34:09;;;;;;;3.45;1.98;;;;;;;15.26;90.13;99110.50;8325524;28;20052;-60
2023/03/24 00:38:09;;;;;;;4.57;2.30;;;;;;;15.34;89.21;99113.03;8326101;28;20056;-60
2023/03/24 00:42:09;;;;;;;2.63;1.58;;;;;;;15.38;89.22;99109.75;8325231;28;20487;-60
2023/03/24 00:46:12;;;;;;;2.78;2.15;;;;;;;15.37;88.88;99097.13;8324862;28;20041;-54
2023/03/24 00:50:16;;;;;;;3.03;1.65;;;;;;;15.32;89.31;99087.88;8296117;28;20046;-54
2023/03/24 00:54:20;;;;;;;3.05;2.05;;;;;;;15.30;89.28;99085.38;8291254;28;20045;-54
2023/03/24 00:58:24;;;;;;;2.72;1.95;;;;;;;15.40;88.93;99091.28;8286693;28;20076;-54
2023/03/24 01:02:27;;;;;;;2.92;2.28;;;;;;;15.39;88.79;99084.16;8304352;28;20049;-53
2023/03/24 01:06:29;;;;;;;3.47;2.05;;;;;;;15.38;88.83;99079.78;8292179;28;20049;-53
2023/03/24 01:10:32;;;;;;;2.65;1.88;;;;;;;15.36;89.23;99083.69;8290630;28;20053;-53
2023/03/24 01:14:33;;;;;;;2.27;1.83;;;;;;;15.40;89.16;99080.38;8293238;28;20351;-54
2023/03/24 01:18:34;;;;;;;2.40;1.90;;;;;;;15.44;88.95;99076.19;8300008;28;20499;-54
2023/03/24 01:22:36;;;;;;;3.78;2.00;;;;;;;15.46;89.11;99068.66;8305121;28;20044;-54
2023/03/24 01:26:36;;;;;;;4.10;1.83;;;;;;;15.62;88.37;99056.56;8321322;28;20365;-54
2023/03/24 01:30:38;;;;;;;4.28;2.38;;;;;;;15.60;88.81;99053.19;8341574;28;20038;-53
2023/03/24 01:34:38;;;;;;;2.92;2.20;;;;;;;15.56;89.62;99047.31;8328276;28;20041;-54
2023/03/24 01:38:39;;;;;;;3.60;2.10;;;;;;;15.58;90.00;99038.91;8327960;28;20037;-53
2023/03/24 01:42:40;;;;;;;4.53;2.40;;;;;;;15.52;90.36;99023.41;8328036;28;20039;-53
2023/03/24 01:46:40;;;;;;;3.05;2.20;;;;;;;15.58;90.25;99028.03;8328000;28;20037;-56
2023/03/24 01:50:47;;;;;;;3.00;1.98;;;;;;;15.66;89.55;99009.63;8315432;28;20088;-55
2023/03/24 01:54:53;;;;;;;3.15;2.05;;;;;;;15.73;89.23;99005.00;8328463;28;20037;-53
2023/03/24 01:58:59;;;;;;;2.80;2.03;;;;;;;15.72;89.16;98986.13;8327880;28;20052;-54
2023/03/24 02:03:16;;;;;;;3.13;2.00;;;;;;;15.83;88.73;98984.66;8294177;28;20065;-54
2023/03/24 02:07:51;;;;;;;4.25;2.28;;;;;;;15.80;88.41;98972.31;8293703;28;20042;-60
2023/03/24 02:11:53;;;;;;;2.17;1.90;;;;;;;15.69;89.12;98975.66;8294162;28;20050;-60
2023/03/24 02:20:30;;;;;;;4.60;2.85;;;;;;;15.81;88.50;98959.50;8379888;27;20396;-59
2023/03/24 02:25:09;;;;;;;3.85;2.80;;;;;;;15.81;88.45;98946.72;8323581;28;20052;-59
2023/03/24 02:29:40;;;;;;;4.43;3.00;;;;;;;15.83;88.39;98952.81;8354064;28;20040;-59
2023/03/24 02:34:12;;;;;;;4.28;3.20;;;;;;;15.74;89.13;98957.63;8353345;28;20557;-59
2023/03/24 02:38:38;;;;;;;4.70;3.10;;;;;;;15.65;91.07;98961.59;8344227;28;20502;-59
2023/03/24 02:42:55;;;;;;;3.40;3.10;;;;;;;15.51;92.05;98968.13;8328213;28;20121;-53
2023/03/24 02:47:09;;;;;;;3.15;2.70;;;;;;;15.49;92.46;98962.03;8343965;28;20037;-59
2023/03/24 02:51:22;;;;;;;3.43;2.90;;;;;;;15.58;91.76;98957.19;8351884;28;20037;-59
2023/03/24 02:55:30;;;;;;;2.80;1.90;;;;;;;15.68;90.94;98954.91;8351063;28;20037;-59
2023/03/24 02:59:42;;;;;;;3.50;2.67;;;;;;;15.69;90.94;98968.31;8331596;28;20394;-60
2023/03/24 03:04:16;;;;;;;3.13;2.15;;;;;;;15.73;90.60;98955.09;8343460;28;20068;-60
2023/03/24 03:08:20;;;;;;;2.50;2.30;;;;;;;15.77;90.38;98962.63;8352397;28;20041;-60
2023/03/24 03:12:23;;;;;;;4.40;2.45;;;;;;;15.57;93.17;98959.13;8330257;28;20412;-54
2023/03/24 03:16:37;;;;;;;3.63;2.50;;;;;;;15.42;94.43;98958.47;8332858;28;20439;-54
2023/03/24 03:20:49;;;;;;;2.88;2.10;;;;;;;15.42;94.57;98954.91;8349559;28;20419;-54
2023/03/24 03:24:54;;;;;;;4.35;2.60;;;;;;;15.40;94.65;98949.66;8342336;28;20049;-54
2023/03/24 03:28:59;;;;;;;3.22;2.50;;;;;;;15.47;94.16;98939.59;8315751;28;20042;-54
2023/03/24 03:33:08;;;;;;;4.55;2.63;;;;;;;15.54;93.32;98940.47;8315106;28;20045;-53
2023/03/24 03:37:20;;;;;;;3.20;2.42;;;;;;;15.50;93.87;98928.28;8329564;28;20044;-54
2023/03/24 03:41:21;;;;;;;4.10;2.40;;;;;;;15.62;92.06;98937.50;8326825;28;20041;-54
2023/03/24 03:45:23;;;;;;;3.75;2.30;;;;;;;15.62;91.85;98942.13;8330090;28;20388;-60
2023/03/24 03:49:24;;;;;;;3.08;2.22;;;;;;;15.69;90.63;98954.69;8328722;28;20120;-59
2023/03/24 03:53:36;;;;;;;5.00;1.90;;;;;;;15.88;88.33;98952.13;8328957;28;20037;-59
2023/03/24 03:57:37;;;;;;;2.83;1.92;;;;;;;15.95;87.44;98947.53;8329711;28;20041;-54
2023/03/24 04:01:45;;;;;;;2.65;1.77;;;;;;;15.97;86.86;98942.69;8315516;28;20411;-53
2023/03/24 04:06:26;;;;;;;2.47;1.50;;;;;;;16.15;84.90;98942.84;8329105;28;20037;-53
2023/03/24 04:10:50;;;;;;;1.48;1.38;;;;;;;16.16;84.64;98956.25;8329350;28;20487;-53
2023/03/24 04:15:30;;;;;;;4.88;1.63;;;;;;;16.23;84.16;98972.63;8328138;28;20044;-54
2023/03/24 04:20:11;;;;;;;2.55;1.52;;;;;;;16.27;83.28;98971.97;8318938;28;20045;-53
2023/03/24 04:24:33;;;;;;;2.63;1.48;;;;;;;16.30;83.37;98973.44;8324519;28;20046;-54
2023/03/24 04:29:02;;;;;;;2.92;1.38;;;;;;;16.08;86.77;98980.19;8308948;28;20106;-54
2023/03/24 04:33:08;;;;;;;2.38;1.48;;;;;;;15.83;88.76;98987.38;8327350;28;20046;-53
2023/03/24 04:37:15;;;;;;;2.45;1.58;;;;;;;15.73;90.53;99000.59;8328423;28;20059;-54
2023/03/24 04:41:30;;;;;;;3.33;1.90;;;;;;;15.33;95.14;99025.06;8324572;28;20525;-53
2023/03/24 04:45:48;;;;;;;4.03;2.17;;;;;;;14.98;100.00;99042.53;8324297;28;20037;-54
2023/03/24 04:50:00;;;;;;;5.78;2.08;;;;;;;14.46;100.00;99042.34;8327211;28;20090;-54
2023/03/24 04:54:01;;;;;;;2.05;1.67;;;;;;;14.31;100.00;99054.38;8326412;28;20510;-54
2023/03/24 04:58:03;;;;;;;2.40;1.55;;;;;;;14.20;100.00;99057.59;8326423;28;20095;-54
2023/03/24 05:02:03;;;;;;;3.85;1.83;;;;;;;13.98;100.00;99054.13;8324235;28;20045;-54
2023/03/24 05:06:25;;;;;;;2.58;1.48;;;;;;;14.03;100.00;99062.50;8330855;28;20407;-54
2023/03/24 05:10:25;;;;;;;1.88;1.08;;;;;;;13.95;99.98;99078.97;8324393;28;20492;-53
2023/03/24 05:14:29;;;;;;;3.15;1.52;;;;;;;13.80;99.26;99089.09;8314549;28;20068;-54
2023/03/24 05:18:29;;;;;;;4.68;1.90;;;;;;;13.77;98.64;99095.75;8306485;28;20072;-54
2023/03/24 05:22:31;;;;;;;4.63;1.83;;;;;;;13.78;97.95;99107.44;8302488;28;20535;-60
2023/03/24 05:26:33;;;;;;;3.25;1.65;;;;;;;13.69;98.53;99124.91;8313200;28;20079;-60
2023/03/24 05:30:42;;;;;;;4.15;2.75;;;;;;;13.55;99.25;99123.09;8323166;28;20048;-59
2023/03/24 05:34:52;;;;;;;4.75;2.60;;;;;;;13.45;98.35;99122.59;8312100;28;20621;-59
2023/03/24 05:39:01;;;;;;;6.38;1.60;;;;;;;13.44;94.81;99132.59;8308134;28;20041;-60
2023/03/24 05:43:14;;;;;;;4.10;1.40;;;;;;;13.45;89.68;99133.47;8320602;28;20071;-60
2023/03/24 05:47:21;;;;;;;6.40;1.65;;;;;;;13.34;88.71;99118.50;8315270;28;20510;-61
2023/03/24 05:51:22;;;;;;;3.33;1.27;;;;;;;13.27;87.93;99147.44;8316004;28;20140;-60
2023/03/24 05:55:34;;;;;;;4.28;1.70;;;;;;;13.20;88.16;99159.25;8319290;28;20427;-60
2023/03/24 05:59:45;;;;;;;4.93;1.50;;;;;;;13.14;88.46;99160.84;8317984;28;20037;-60
2023/03/24 06:04:06;;;;;;;5.57;1.30;;;;;;;13.05;88.98;99174.72;8316663;28;20037;-60
2023/03/24 06:08:08;;;;;;;7.82;1.92;;;;;;;12.97;89.36;99177.50;8318770;28;20419;-60
2023/03/24 06:12:12;;;;;;;7.15;1.90;;;;;;;13.01;89.84;99184.25;8316070;28;20087;-60
2023/03/24 06:16:22;;;;;;;6.70;2.03;;;;;;;12.96;90.28;99192.91;8310083;28;20069;-60
2023/03/24 06:20:28;;;;;;;3.90;1.52;;;;;;;13.03;89.88;99209.34;8319791;28;20061;-60
2023/03/24 06:24:38;;;;;;;6.28;1.90;;;;;;;12.88;89.94;99219.31;8315883;28;20057;-60
2023/03/24 06:28:42;;;;;;;11.60;2.38;;;;;;;12.80;90.51;99231.09;8286286;28;20045;-59
2023/03/24 06:32:50;;;;;;;8.18;1.58;;;;;;;12.79;91.42;99234.00;8317107;28;20423;-60
2023/03/24 06:36:52;;;;;;;6.78;1.55;;;;;;;12.73;90.75;99262.69;8310599;28;20402;-60
2023/03/24 06:40:53;;;;;;;9.52;1.80;;;;;;;12.84;91.16;99266.84;8331584;28;20033;-51
2023/03/24 06:44:53;;;;;;;9.38;1.92;;;;;;;12.72;92.03;99271.84;8314486;28;20041;-60
2023/03/24 06:48:55;;;;;;;8.15;2.22;;;;;;;12.63;93.25;99296.53;8299733;28;20059;-60
2023/03/24 06:52:55;;;;;;;7.13;2.08;;;;;;;12.70;90.37;99278.47;8317594;28;20121;-60
2023/03/24 06:56:57;;;;;;;9.45;2.45;;;;;;;12.75;90.30;99281.50;8318137;28;20037;-60
2023/03/24 07:01:01;;;;;;;8.30;2.75;;;;;;;12.76;89.74;99266.91;8311381;28;20046;-54
2023/03/24 07:05:11;;;;;;;6.75;2.85;;;;;;;12.75;89.60;99265.22;8296344;28;20041;-53
2023/03/24 07:09:16;;;;;;;8.02;2.60;;;;;;;12.76;89.17;99281.31;8304790;28;20408;-54
2023/03/24 07:13:17;;;;;;;11.57;2.95;;;;;;;12.65;89.88;99280.91;8297552;28;20037;-54
2023/03/24 07:17:18;;;;;;;11.60;3.13;;;;;;;12.72;89.89;99282.69;8323805;28;20041;-54
2023/03/24 07:21:38;;;;;;;8.10;2.63;;;;;;;12.78;89.98;99284.66;8329886;28;20115;-53
2023/03/24 07:25:40;;;;;;;11.15;3.65;;;;;;;12.83;89.14;99289.53;8317476;28;20065;-54
2023/03/24 07:30:01;;;;;;;14.52;3.42;;;;;;;13.04;87.81;99289.69;8297761;28;20053;-54
2023/03/24 07:34:12;;;;;;;8.15;2.40;;;;;;;13.17;87.63;99303.44;8321768;28;20045;-55
2023/03/24 07:38:13;;;;;;;14.13;3.65;;;;;;;13.16;87.17;99312.63;8330487;28;20041;-54
2023/03/24 07:42:14;;;;;;;10.48;3.63;;;;;;;13.19;85.58;99304.09;8329726;28;20075;-54
2023/03/24 07:46:35;;;;;;;11.20;3.28;;;;;;;13.17;86.38;99303.44;8329899;28;20037;-54
2023/03/24 07:50:35;;;;;;;13.93;3.40;;;;;;;13.21;86.51;99315.63;8329077;28;20128;-54
2023/03/24 07:54:42;;;;;;;26.75;4.15;;;;;;;13.22;84.29;99322.72;8321612;28;20121;-55
2023/03/24 07:58:47;;;;;;;;;;;;;;;13.31;85.02;99321.63;8329209;28;20041;-54
2023/03/24 08:02:59;;;;;;;12.73;4.43;;;;;;;13.60;82.69;99319.72;8328545;28;19917;-54
2023/03/24 08:07:19;;;;;;;16.15;3.70;;;;;;;13.81;81.46;99324.38;8328518;28;20122;-54
2023/03/24 08:11:20;;;;;;;13.70;3.78;;;;;;;13.81;81.66;99313.50;8328476;28;20152;-54
2023/03/24 08:15:21;;;;;;;13.98;3.65;;;;;;;13.71;80.93;99313.81;8328395;28;20041;-54
2023/03/24 08:19:21;;;;;;;7.63;3.10;;;;;;;14.09;80.88;99310.91;8328712;28;20045;-54
2023/03/24 08:23:22;;;;;;;20.30;3.30;;;;;;;14.68;79.82;99293.31;8327916;28;20041;-54
2023/03/24 08:27:23;;;;;;;8.90;2.38;;;;;;;15.26;76.62;99301.94;8324990;28;20041;-53
2023/03/24 08:31:23;;;;;;;10.68;2.17;;;;;;;15.06;75.03;99306.41;8326140;28;20033;-54
2023/03/24 08:35:27;;;;;;;11.13;1.77;;;;;;;14.74;76.45;99319.75;8325033;28;20099;-60
2023/03/24 08:39:31;;;;;;;7.70;2.10;;;;;;;14.98;76.47;99314.69;8327931;28;20037;-60
2023/03/24 08:43:33;;;;;;;14.13;2.50;;;;;;;15.35;75.75;99327.97;8327578;28;20578;-60
2023/03/24 08:47:34;;;;;;;14.63;2.17;;;;;;;15.61;74.58;99317.25;8331882;28;20036;-60
2023/03/24 08:51:35;;;;;;;12.55;2.70;;;;;;;15.36;73.86;99321.47;8348572;28;20040;-54
2023/03/24 08:55:40;;;;;;;15.35;2.33;;;;;;;15.41;74.67;99327.19;8344730;28;20112;-52
2023/03/24 08:59:41;;;;;;;11.25;2.10;;;;;;;15.75;72.28;99323.59;8326753;28;20069;-54
2023/03/24 09:03:43;;;;;;;8.65;2.20;;;;;;;15.79;72.23;99334.94;8326622;28;20045;-55
2023/03/24 09:07:45;;;;;;;10.23;1.95;;;;;;;15.70;71.61;99328.81;8326914;28;20041;-55
2023/03/24 09:11:47;;;;;;;8.95;2.00;;;;;;;16.02;70.00;99335.44;8326470;28;20507;-54
2023/03/24 09:15:52;;;;;;;14.50;2.17;;;;;;;16.09;69.96;99330.84;8327490;28;20521;-54
2023/03/24 09:19:52;;;;;;;;;;;;;;;15.84;68.76;99333.28;8326875;28;20503;-54
2023/03/24 09:23:52;;;;;;;9.83;2.50;;;;;;;16.07;71.44;99339.25;8326349;28;20348;-60
2023/03/24 09:27:53;;;;;;;12.68;2.75;;;;;;;16.37;68.90;99345.19;8295325;28;20277;-60
2023/03/24 09:31:53;;;;;;;10.25;2.67;;;;;;;17.14;65.04;99360.03;8298833;28;20042;-60
2023/03/24 09:35:57;;;;;;;6.57;2.22;;;;;;;18.58;61.11;99339.41;8326290;28;20499;-60
2023/03/24 09:39:58;;;;;;;7.53;2.00;;;;;;;20.09;57.62;99352.53;8326437;28;20038;-60
2023/03/24 09:44:23;;;;;;;7.20;2.10;;;;;;;20.55;55.98;99352.78;8326638;28;20079;-60
2023/03/24 09:52:43;;;;;;;8.98;1.33;;;;;;;20.37;54.97;99355.59;8404713;27;20466;-59
2023/03/24 09:56:47;;;;;;;7.35;1.15;;;;;;;20.98;54.56;99361.72;8395361;27;20529;-59
2023/03/24 10:00:48;;;;;;;7.13;1.88;;;;;;;21.49;53.53;99352.78;8394638;27;20032;-60
2023/03/24 10:04:49;;;;;;;6.28;1.42;;;;;;;22.14;51.36;99363.38;8378728;28;20179;-60
2023/03/24 10:09:05;;;;;;;7.22;1.15;;;;;;;21.96;52.05;99355.28;8370859;28;20037;-59
2023/03/24 10:13:14;;;;;;;5.82;1.58;;;;;;;21.57;52.32;99366.19;8369763;28;20044;-60
2023/03/24 10:17:46;;;;;;;7.22;1.42;;;;;;;20.15;54.75;99376.34;8368049;28;20037;-60
2023/03/24 10:21:59;;;;;;;7.57;1.70;;;;;;;19.83;55.69;99377.53;8380239;27;20490;-60
2023/03/24 10:26:24;;;;;;;8.68;1.85;;;;;;;20.43;54.72;99384.88;8385643;28;20419;-60
2023/03/24 10:30:30;;;;;;;8.18;2.17;;;;;;;21.86;52.47;99385.34;8369624;28;20041;-60
2023/03/24 10:34:33;;;;;;;8.35;1.30;;;;;;;21.42;53.47;99385.06;8369983;28;22684;-60
2023/03/24 10:38:33;;;;;;;7.30;2.05;;;;;;;22.05;51.59;99375.03;8369937;28;20041;-60
2023/03/24 10:42:35;;;;;;;5.82;1.50;;;;;;;21.51;53.25;99379.00;8368933;28;20041;-60
2023/03/24 10:46:41;;;;;;;10.23;1.48;;;;;;;21.42;53.07;99385.91;8369277;28;20385;-60
2023/03/24 10:50:43;;;;;;;4.80;1.40;;;;;;;22.24;50.79;99385.66;8370041;28;20064;-59
2023/03/24 10:55:05;;;;;;;7.05;1.30;;;;;;;21.56;51.07;99397.53;8400959;27;20070;-59
2023/03/24 10:59:19;;;;;;;6.85;1.40;;;;;;;21.71;51.88;99395.97;8402262;27;20067;-60
2023/03/24 11:03:27;;;;;;;7.18;1.48;;;;;;;21.91;50.79;99390.97;8306520;28;20458;-61
2023/03/24 11:07:38;;;;;;;6.25;1.10;;;;;;;21.73;49.88;99382.81;8339319;28;20033;-60
2023/03/24 11:11:38;;;;;;;6.30;1.05;;;;;;;19.52;54.43;99391.38;8346074;28;20068;-60
2023/03/24 11:15:52;;;;;;;7.53;2.20;;;;;;;19.96;54.29;99389.22;8345939;28;20049;-60
2023/03/24 11:19:55;;;;;;;7.72;1.25;;;;;;;19.16;55.80;99397.56;8346279;28;20060;-60
2023/03/24 11:23:58;;;;;;;9.02;1.45;;;;;;;19.96;55.75;99402.09;8370860;28;20121;-60
2023/03/24 11:28:02;;;;;;;6.18;1.10;;;;;;;20.46;53.34;99407.22;8327910;28;20069;-60
2023/03/24 11:32:12;;;;;;;8.45;1.48;;;;;;;19.63;54.69;99409.81;8328024;28;20045;-60
2023/03/24 11:40:57;;;;;;;10.98;1.45;;;;;;;19.01;57.64;99411.59;8413496;27;20502;-60
2023/03/24 11:44:57;;;;;;;6.30;1.65;;;;;;;19.29;56.96;99403.81;8402259;27;20396;-53
2023/03/24 11:48:58;;;;;;;6.55;1.17;;;;;;;18.47;57.31;99408.53;8403800;27;20036;-53
2023/03/24 11:53:17;;;;;;;7.28;1.60;;;;;;;19.14;56.80;99403.25;8402914;27;20143;-53
2023/03/24 11:57:39;;;;;;;9.85;1.30;;;;;;;18.55;56.36;99402.81;8403179;27;20438;-54
2023/03/24 12:01:55;;;;;;;6.82;1.20;;;;;;;18.18;57.11;99400.84;8398751;27;20094;-55
2023/03/24 12:06:11;;;;;;;8.25;1.75;;;;;;;19.38;54.52;99399.72;8399066;27;20048;-55
2023/03/24 12:10:51;;;;;;;7.15;1.10;;;;;;;21.90;50.74;99392.06;8402844;27;20101;-56
2023/03/24 12:15:20;;;;;;;8.65;1.35;;;;;;;23.12;47.93;99389.59;8403034;27;20419;-54
2023/03/24 12:19:40;;;;;;;4.47;0.82;;;;;;;21.87;49.70;99387.03;8403593;27;20047;-54
2023/03/24 12:24:17;;;;;;;6.57;1.38;;;;;;;23.06;48.23;99384.28;8402545;27;20513;-58
2023/03/24 12:28:29;;;;;;;5.68;1.08;;;;;;;23.14;47.48;99387.44;8368489;28;20036;-60
2023/03/24 12:32:40;;;;;;;6.43;1.15;;;;;;;22.25;48.78;99372.69;8376842;28;20044;-61
2023/03/24 12:37:09;;;;;;;8.00;1.55;;;;;;;19.74;53.22;99378.91;8384802;28;20067;-59
2023/03/24 12:45:43;;;;;;;5.93;1.30;;;;;;;20.94;50.77;99374.19;8406552;27;20836;-59
2023/03/24 12:49:57;;;;;;;6.25;1.15;;;;;;;19.32;51.97;99375.94;8400048;27;20115;-58
2023/03/24 12:54:24;;;;;;;6.25;1.15;;;;;;;18.08;54.30;99380.47;8372427;28;20091;-53
2023/03/24 13:02:53;;;;;;;7.70;1.40;;;;;;;18.36;55.39;99381.81;8314102;28;20383;-53
2023/03/24 13:07:00;;;;;;;6.13;1.15;;;;;;;18.31;55.16;99389.84;8307368;28;20106;-53
2023/03/24 13:11:06;;;;;;;12.73;1.40;;;;;;;17.98;55.58;99375.44;8318043;28;20039;-53
2023/03/24 13:19:23;;;;;;;6.78;1.08;;;;;;;18.85;54.34;99359.25;8351881;27;20388;-53
2023/03/24 13:23:38;;;;;;;3.10;0.80;;;;;;;18.62;55.61;99362.53;8345766;28;20042;-53
2023/03/24 13:27:41;;;;;;;4.72;0.85;;;;;;;18.22;55.33;99361.06;8315646;28;20041;-53
2023/03/24 13:31:56;;;;;;;5.53;1.20;;;;;;;18.09;55.93;99350.19;8314702;28;20080;-54
2023/03/24 13:36:02;;;;;;;;;;;;;;;17.95;57.26;99354.00;8312334;28;20049;-53
2023/03/24 13:40:10;;;;;;;5.90;1.00;;;;;;;17.78;58.13;99352.78;8343220;28;19961;-53
2023/03/24 13:44:19;;;;;;;5.30;1.13;;;;;;;17.63;57.87;99351.38;8319010;28;20459;-53
2023/03/24 13:48:42;;;;;;;5.55;1.17;;;;;;;17.55;59.15;99368.84;8349903;28;20033;-53
2023/03/24 13:52:46;;;;;;;4.95;1.00;;;;;;;17.29;58.13;99385.22;8343410;28;20124;-54
2023/03/24 13:57:13;;;;;;;4.45;0.80;;;;;;;17.44;61.54;99394.06;8332884;28;20049;-54
2023/03/24 14:01:30;;;;;;;6.68;1.10;;;;;;;17.34;59.29;99385.44;8342186;28;20076;-54
2023/03/24 14:05:53;;;;;;;5.68;0.70;;;;;;;17.10;60.49;99380.59;8349101;28;20419;-54
2023/03/24 14:09:57;;;;;;;5.57;1.17;;;;;;;16.81;60.98;99386.47;8335133;28;20128;-54
2023/03/24 14:18:31;;;;;;;5.03;1.10;;;;;;;16.17;67.92;99387.94;8318667;28;20927;-53
2023/03/24 14:22:34;;;;;;;6.15;1.00;;;;;;;15.85;67.92;99389.47;8316589;28;20052;-53
2023/03/24 14:26:34;;;;;;;7.00;1.20;;;;;;;15.87;67.61;99387.41;8315415;28;20041;-53
2023/03/24 14:30:39;;;;;;;5.40;0.70;;;;;;;15.91;67.34;99376.91;8303071;28;20317;-53
2023/03/24 14:34:50;;;;;;;4.93;0.68;;;;;;;15.99;67.55;99390.38;8314446;28;20049;-55
2023/03/24 14:38:51;;;;;;;3.25;0.65;;;;;;;16.49;66.07;99373.59;8289982;28;20263;-54
2023/03/24 14:42:55;;;;;;;3.83;0.60;;;;;;;16.37;65.89;99377.94;8283831;28;20076;-53
2023/03/24 14:46:57;;;;;;;2.13;0.55;;;;;;;16.44;65.10;99389.75;8307067;28;20048;-54
2023/03/24 14:51:05;;;;;;;3.28;0.57;;;;;;;16.37;67.14;99380.66;8314145;28;20491;-53
2023/03/24 14:55:11;;;;;;;1.90;0.50;;;;;;;16.62;66.75;99387.28;8314912;28;20046;-53
2023/03/24 15:04:03;;;;;;;3.55;0.73;;;;;;;16.37;67.46;99367.00;8396530;27;20392;-54
2023/03/24 15:08:21;;;;;;;2.35;0.50;;;;;;;16.39;67.09;99354.03;8395007;28;20505;-54
2023/03/24 15:12:22;;;;;;;3.38;0.70;;;;;;;16.50;67.56;99356.19;8393646;28;20047;-54
2023/03/24 15:16:25;;;;;;;3.75;0.70;;;;;;;16.41;66.35;99352.75;8395959;28;20067;-54
2023/03/24 15:20:32;;;;;;;7.83;1.00;;;;;;;16.57;65.82;99354.31;8408966;28;20068;-54
2023/03/24 15:24:35;;;;;;;8.10;1.00;;;;;;;16.63;66.26;99345.31;8403634;28;20048;-54
2023/03/24 15:28:36;;;;;;;4.68;0.85;;;;;;;16.56;66.12;99345.28;8403270;28;20044;-54
2023/03/24 15:32:39;;;;;;;5.82;1.23;;;;;;;16.51;67.35;99330.59;8394692;28;20052;-54
2023/03/24 15:36:40;;;;;;;4.85;0.90;;;;;;;16.76;66.61;99335.25;8396924;28;20059;-54
2023/03/24 15:40:41;;;;;;;4.30;0.98;;;;;;;16.76;66.49;99339.84;8393219;28;20043;-54
2023/03/24 15:44:41;;;;;;;4.32;0.93;;;;;;;16.70;66.38;99324.31;8403013;28;20055;-56
2023/03/24 15:48:45;;;;;;;8.80;0.85;;;;;;;16.59;65.83;99330.41;8410255;28;20036;-54
2023/03/24 15:52:57;;;;;;;6.57;1.15;;;;;;;16.41;69.28;99336.41;8404500;28;20083;-55
2023/03/24 15:57:00;;;;;;;6.03;1.00;;;;;;;16.02;74.16;99351.81;8401634;28;20426;-55
2023/03/24 16:01:05;;;;;;;3.00;0.60;;;;;;;15.22;78.99;99336.03;8413687;28;20472;-54
2023/03/24 16:05:18;;;;;;;2.13;0.22;;;;;;;14.83;76.52;99333.03;8410352;28;20461;-54
2023/03/24 16:09:21;;;;;;;1.17;0.55;;;;;;;14.71;78.69;99340.03;8392306;28;20040;-54
2023/03/24 16:13:22;;;;;;;3.25;0.40;;;;;;;14.49;78.76;99341.06;8401141;28;20127;-54
2023/03/24 16:17:22;;;;;;;1.40;0.28;;;;;;;14.44;79.94;99353.56;8383610;28;20041;-54
2023/03/24 16:21:25;;;;;;;0.68;0.30;;;;;;;14.29;82.41;99378.09;8375211;28;20090;-54
2023/03/24 16:25:25;;;;;;;3.20;0.60;;;;;;;14.07;82.66;99394.50;8391673;28;20028;-54
2023/03/24 16:29:26;;;;;;;2.00;0.50;;;;;;;13.91;79.73;99409.16;8385341;28;20035;-54
2023/03/24 16:33:27;;;;;;;3.28;0.40;;;;;;;13.58;78.34;99410.56;8386199;28;20332;-54
2023/03/24 16:37:27;;;;;;;1.88;0.75;;;;;;;13.40;80.63;99456.22;8376378;28;20093;-54
2023/03/24 16:41:28;;;;;;;1.80;0.40;;;;;;;13.05;84.10;99440.63;8371694;28;20102;-54
2023/03/24 16:45:29;;;;;;;4.15;0.73;;;;;;;12.89;90.76;99414.41;8377160;28;20132;-55
2023/03/24 16:49:29;;;;;;;2.25;0.70;;;;;;;13.03;93.07;99431.81;8377023;28;20107;-54
2023/03/24 16:53:30;;;;;;;1.45;0.38;;;;;;;13.05;91.95;99403.47;8360492;28;20057;-54
2023/03/24 16:57:31;;;;;;;4.07;0.50;;;;;;;12.97;93.59;99395.38;8353122;28;20037;-54
2023/03/24 17:01:39;;;;;;;4.25;0.50;;;;;;;12.90;93.08;99399.00;8381183;28;20449;-54
2023/03/24 17:09:52;;;;;;;3.63;1.20;;;;;;;12.97;94.31;99389.09;8295399;28;20397;-54
2023/03/24 17:13:53;;;;;;;2.15;0.80;;;;;;;12.87;93.96;99399.38;8281255;28;20050;-54
2023/03/24 17:17:54;;;;;;;2.92;0.85;;;;;;;12.95;94.09;99396.56;8249259;28;20081;-54
2023/03/24 17:22:00;;;;;;;2.53;0.50;;;;;;;12.94;93.25;99390.31;8246141;28;20045;-60
2023/03/24 17:26:00;;;;;;;4.93;0.63;;;;;;;12.97;92.90;99389.09;8243873;28;20108;-60
2023/03/24 17:30:01;;;;;;;5.65;0.95;;;;;;;12.80;92.95;99390.25;8259224;28;20054;-62
2023/03/24 17:34:01;;;;;;;5.47;1.10;;;;;;;12.72;95.31;99388.44;8264327;28;20042;-60
2023/03/24 17:38:02;;;;;;;3.35;0.70;;;;;;;12.50;95.28;99392.00;8265511;28;20057;-60
2023/03/24 17:42:03;;;;;;;4.97;1.00;;;;;;;12.24;98.04;99393.38;8260314;28;20037;-60
2023/03/24 17:46:04;;;;;;;3.70;0.80;;;;;;;12.17;97.88;99390.53;8259174;28;20092;-60
2023/03/24 17:50:08;;;;;;;4.13;1.00;;;;;;;12.01;98.72;99398.75;8275582;28;20034;-60
2023/03/24 17:54:10;;;;;;;5.35;1.40;;;;;;;11.95;99.33;99401.34;8301783;28;20038;-60
2023/03/24 17:58:10;;;;;;;3.03;1.15;;;;;;;11.98;98.42;99396.38;8264105;28;20038;-60
2023/03/24 18:02:12;;;;;;;3.58;0.80;;;;;;;11.66;100.00;99400.09;8262163;28;20556;-60
2023/03/24 18:06:15;;;;;;;5.20;1.30;;;;;;;11.44;100.00;99392.69;8257108;28;20034;-60
2023/03/24 18:10:15;;;;;;;5.63;1.00;;;;;;;11.74;96.74;99400.06;8254088;28;20066;-61
2023/03/24 18:14:16;;;;;;;5.65;1.38;;;;;;;11.80;94.91;99399.34;8246344;28;20049;-60
2023/03/24 18:18:17;;;;;;;9.98;4.80;;;;;;;11.98;92.75;99395.56;8239720;28;20043;-61
2023/03/24 18:22:17;;;;;;;4.18;1.60;;;;;;;12.11;91.73;99401.25;8210376;28;20055;-60
2023/03/24 18:26:18;;;;;;;2.55;0.80;;;;;;;12.06;91.08;99400.91;8237664;28;20069;-60
2023/03/24 18:30:21;;;;;;;4.00;1.17;;;;;;;11.97;91.33;99404.69;8237939;28;20104;-60
2023/03/24 18:34:21;;;;;;;3.03;1.13;;;;;;;12.02;90.92;99402.31;8239805;28;20435;-60
2023/03/24 18:38:23;;;;;;;4.05;1.25;;;;;;;12.05;90.50;99396.53;8248619;28;20050;-60
2023/03/24 18:42:24;;;;;;;8.88;3.40;;;;;;;11.98;90.92;99387.44;8255540;28;20125;-53
2023/03/24 18:46:25;;;;;;;3.63;1.83;;;;;;;11.86;91.21;99390.53;8268218;28;20290;-53
2023/03/24 18:50:25;;;;;;;7.85;3.25;;;;;;;11.87;92.10;99384.09;8278792;28;20595;-54
2023/03/24 18:54:26;;;;;;;7.30;2.97;;;;;;;11.86;91.39;99387.81;8269587;28;20125;-54
2023/03/24 18:58:27;;;;;;;4.63;2.83;;;;;;;11.81;91.99;99390.19;8247660;28;20073;-54
2023/03/24 19:02:28;;;;;;;7.85;2.13;;;;;;;11.79;92.68;99399.53;8230101;28;20085;-54
2023/03/24 19:06:30;;;;;;;5.45;2.58;;;;;;;11.73;93.06;99390.25;8250274;28;20077;-54
2023/03/24 19:10:33;;;;;;;4.55;1.85;;;;;;;11.85;93.02;99391.56;8251240;28;20109;-54
2023/03/24 19:14:34;;;;;;;6.85;3.30;;;;;;;11.90;92.83;99389.16;8248617;28;20042;-54
2023/03/24 19:18:35;;;;;;;3.72;1.05;;;;;;;11.64;95.12;99393.16;8216438;28;20043;-53
2023/03/24 19:22:36;;;;;;;8.88;3.08;;;;;;;11.52;96.24;99395.38;8212988;28;20054;-54
2023/03/24 19:26:37;;;;;;;4.65;1.38;;;;;;;12.26;89.85;99386.75;8223087;28;20058;-54
2023/03/24 19:30:37;;;;;;;4.63;0.93;;;;;;;12.90;84.24;99388.97;8248574;28;20531;-54
2023/03/24 19:34:38;;;;;;;4.40;0.85;;;;;;;13.27;80.94;99412.59;8244377;28;20043;-54
2023/03/24 19:38:40;;;;;;;3.63;0.60;;;;;;;13.33;79.52;99417.28;8229353;28;20074;-54
2023/03/24 19:42:43;;;;;;;4.40;0.68;;;;;;;13.35;79.34;99415.22;8255158;28;20125;-54
2023/03/24 19:46:44;;;;;;;0.63;0.30;;;;;;;13.31;79.33;99413.91;8249845;28;20053;-53
2023/03/24 19:50:47;;;;;;;1.58;0.70;;;;;;;13.20;80.29;99408.91;8252639;28;20058;-54
2023/03/24 19:54:48;;;;;;;1.03;0.40;;;;;;;13.04;81.41;99415.34;8276497;28;20046;-54
2023/03/24 19:58:49;;;;;;;4.35;0.57;;;;;;;12.95;80.46;99416.41;8229667;28;20058;-54
2023/03/24 20:02:49;;;;;;;3.08;0.70;;;;;;;12.90;80.92;99405.25;8219941;28;20094;-55